KARR/ARR METAR and TAF weather

Enter ICAO airport designator
Station Type Date Time Source
KARR METAR 2021/01/27 12:52 UTC NOAA

KARR 271252Z AUTO 36008KT 10SM CLR M10/M14 A3031 RMK AO2 SLP274 T11001139 PWINO FZRANO $


Station Type Date Time Source
KARR Decoded METAR 2021/01/27 12:52 UTC NOAA

CHICAGO AURORA MUNICIPAL, IL, United States (KARR) 41-46N 088-28W 215M
Jan 27, 2021 - 07:52 AM EST / 2021.01.27 1252 UTC
Wind: from the N (360 degrees) at 9 MPH (8 KT):0
Visibility: 10 mile(s):0
Sky conditions: clear
Temperature: 14.0 F (-10.0 C)
Windchill: 1 F (-17 C):1
Dew Point: 7.0 F (-13.9 C)
Relative Humidity: 73%
Pressure (altimeter): 30.31 in. Hg (1026 hPa)
ob: KARR 271252Z AUTO 36008KT 10SM CLR M10/M14 A3031 RMK AO2 SLP274 T11001139 PWINO FZRANO
cycle: 13

Station Type Date Time Source
KARR TAF UTC NOAA

Error!

Example: see airport list